ZLXY/XIY METAR and TAF weather

Enter ICAO airport designator
Station Type Date Time Source
ZLXY METAR 2019/09/20 20:00 UTC NOAA

ZLXY 202000Z 02001MPS 6000 NSC 13/13 Q1021 NOSIG


Station Type Date Time Source
ZLXY Decoded METAR 2019/09/20 20:00 UTC NOAA

Xian/Xianyang, China (ZLXY) 34-26N 108-45E
Sep 20, 2019 - 04:00 PM EDT / 2019.09.20 2000 UTC
Wind: from the NNE (020 degrees) at 2 MPH (2 KT):0
Visibility: 3 mile(s):0
Temperature: 55 F (13 C)
Dew Point: 55 F (13 C)
Relative Humidity: 100%
Pressure (altimeter): 30.15 in. Hg (1021 hPa)
ob: ZLXY 202000Z 02001MPS 6000 NSC 13/13 Q1021 NOSIG
cycle: 20

Station Type Date Time Source
ZLXY TAF 2019/09/20 18:03 UTC NOAA

TAF ZLXY 201519Z 2018/2118 26003MPS 3000 BR NSC TX26/2108Z TN12/2022Z
TEMPO 2020/2024 1200 BR

Example: see airport list